Main page
METAR-TAF:

METAR-TAF

Airports :

Tirupati Airport

Tirupati, India

latitude: 13-38-16N, longitude: 79-32-50E, elevation: 107 m

Current weather observation

The report was made 2 hours and 31 minutes ago, at 16:00 UTC
Wind 2 kt from variable directions
Temperature 29°C
Humidity 79%
Pressure 1012 hPa
Visibility: 3000 m
Scattered clouds at a height of 2000 ft
haze

METAR: VOTP 211600Z VRB02KT 3000 HZ SCT020 29/25 Q1012 NOSIG

Time: 00:01 (18:31 UTC)

Forecast

The report was made 10 hours and 31 minutes ago, at 08:00 UTC
Forecast valid from 21 at 09 UTC to 21 at 18 UTC
Wind 8 kt from the North/Northwest
Visibility: 5000 m
Few clouds at a height of 1500 ft
Scattered clouds at a height of 10000 ft
haze, mist

TAF: VOTP 210800Z 2109/2118 34008KT 5000 HZ BR FEW015 SCT100

Weather observations and forecasts of more than 4000 airports (METAR and TAF reports).

The available stations are represented by yellow and red dots on the map.

Hover mouse over dot to see the name of the station.

Then click to see weather observations and forecasts.

To change the map : click on the green buttons with a black cross to zoom in, on the green button with a dash to zoom out, or on the green arrows for adjacent maps.


METAR-TAF: